Time;durP1;ratioP1;P1;durP2;ratioP2;P2;SDS_P1;SDS_P2;PMS_P1;PMS_P2;Temp;Humidity;BMP_temperature;BMP_pressure;BME280_temperature;BME280_humidity;BME280_pressure;Samples;Min_cycle;Max_cycle;Signal;HPM_P1;HPM_P2
2022/01/30 00:00:18;;;;;;;12.43;5.18;;;3.40;99.90;;;;;;5069772;28;20035;-45
2022/01/30 00:02:44;;;;;;;12.27;4.88;;;3.40;99.90;;;;;;5053631;28;20462;-47
2022/01/30 00:05:10;;;;;;;3.33;2.10;;;3.40;99.90;;;;;;5071496;28;20078;-46
2022/01/30 00:07:36;;;;;;;5.85;2.50;;;3.30;99.90;;;;;;5071284;28;20085;-45
2022/01/30 00:10:04;;;;;;;5.15;3.17;;;3.40;99.90;;;;;;5024613;28;20484;-45
2022/01/30 00:12:45;;;;;;;4.10;2.17;;;3.40;99.90;;;;;;5069355;28;20161;-47
2022/01/30 00:15:12;;;;;;;5.72;2.22;;;3.50;99.90;;;;;;5053675;28;20135;-46
2022/01/30 00:17:44;;;;;;;9.35;4.25;;;3.50;99.90;;;;;;5071685;28;20119;-45
2022/01/30 00:20:18;;;;;;;8.25;2.95;;;3.60;99.90;;;;;;5067247;28;20043;-46
2022/01/30 00:22:49;;;;;;;9.98;4.18;;;3.70;99.90;;;;;;5038122;28;20476;-46
2022/01/30 00:25:19;;;;;;;6.90;3.80;;;3.80;99.90;;;;;;5027962;28;20462;-46
2022/01/30 00:27:56;;;;;;;6.95;3.92;;;3.70;99.90;;;;;;5019839;28;20301;-46
2022/01/30 00:30:22;;;;;;;7.45;3.55;;;3.70;99.90;;;;;;5064999;28;20028;-45
2022/01/30 00:32:47;;;;;;;10.48;4.53;;;3.80;99.90;;;;;;5069599;28;20430;-45
2022/01/30 00:35:13;;;;;;;7.93;4.78;;;3.80;99.90;;;;;;5053213;28;20415;-47
2022/01/30 00:37:42;;;;;;;7.65;3.70;;;3.90;99.90;;;;;;5050997;28;20040;-47
2022/01/30 00:40:08;;;;;;;9.38;3.67;;;3.80;99.90;;;;;;5071437;28;20123;-47
2022/01/30 00:42:35;;;;;;;7.00;3.78;;;3.80;99.90;;;;;;5071391;28;20429;-46
2022/01/30 00:45:01;;;;;;;8.07;4.13;;;3.90;99.90;;;;;;5071554;28;20052;-45
2022/01/30 00:47:27;;;;;;;9.77;5.10;;;3.90;99.90;;;;;;5071359;28;20045;-47
2022/01/30 00:49:52;;;;;;;8.25;4.60;;;4.00;99.90;;;;;;5066002;28;20091;-45
2022/01/30 00:52:18;;;;;;;7.95;4.03;;;4.00;99.90;;;;;;5069721;28;20028;-45
2022/01/30 00:54:44;;;;;;;11.80;6.38;;;3.90;99.90;;;;;;5068559;28;20047;-47
2022/01/30 00:57:10;;;;;;;5.85;3.80;;;3.90;99.90;;;;;;5072541;28;20480;-47
2022/01/30 00:59:36;;;;;;;8.82;3.72;;;3.80;99.90;;;;;;5052104;28;20040;-44
2022/01/30 01:02:02;;;;;;;5.70;3.72;;;3.70;99.90;;;;;;5070492;28;20079;-45
2022/01/30 01:04:28;;;;;;;4.72;3.25;;;3.70;99.90;;;;;;5069418;28;20062;-47
2022/01/30 01:06:54;;;;;;;7.97;4.10;;;3.70;99.90;;;;;;5068800;28;20028;-46
2022/01/30 01:09:24;;;;;;;15.35;5.45;;;3.80;99.90;;;;;;5075056;28;20084;-46
2022/01/30 01:25:12;;;;;;;8.68;3.15;;;3.80;99.90;;;;;;5070644;28;20051;-45
2022/01/30 01:27:38;;;;;;;6.38;2.95;;;4.00;99.90;;;;;;5069930;28;20025;-46
2022/01/30 01:30:04;;;;;;;5.63;2.95;;;4.00;99.90;;;;;;5073818;28;20032;-47
2022/01/30 01:32:30;;;;;;;6.15;3.05;;;3.80;99.90;;;;;;4988013;28;20040;-46
2022/01/30 01:34:56;;;;;;;7.40;3.53;;;3.90;99.90;;;;;;5071206;28;20025;-45
2022/01/30 01:37:21;;;;;;;7.18;3.40;;;3.90;99.90;;;;;;5036213;28;20067;-46
2022/01/30 01:39:47;;;;;;;4.90;2.80;;;3.80;99.90;;;;;;5063637;28;20033;-46
2022/01/30 01:42:15;;;;;;;4.95;2.83;;;3.70;99.90;;;;;;5065810;28;20107;-44
2022/01/30 01:44:46;;;;;;;8.00;3.35;;;3.70;99.90;;;;;;5071000;28;20044;-46
2022/01/30 01:47:12;;;;;;;9.07;3.08;;;3.60;99.90;;;;;;5071111;28;20028;-45
2022/01/30 01:49:39;;;;;;;3.83;2.53;;;;;;;;;;5069802;28;20043;-46
2022/01/30 01:52:19;;;;;;;4.80;2.95;;;3.40;99.90;;;;;;5068147;28;20113;-46
2022/01/30 01:55:05;;;;;;;6.10;3.38;;;3.40;99.90;;;;;;5039157;28;20075;-44
2022/01/30 01:57:31;;;;;;;7.35;4.13;;;3.40;99.90;;;;;;5003363;28;20046;-45
2022/01/30 02:00:00;;;;;;;10.45;4.30;;;3.40;99.90;;;;;;4944398;28;20042;-46
2022/01/30 02:02:27;;;;;;;9.13;3.90;;;3.40;99.90;;;;;;4966074;28;20046;-47
2022/01/30 02:04:57;;;;;;;6.97;4.22;;;3.30;99.90;;;;;;4974853;28;20565;-46
2022/01/30 02:08:02;;;;;;;6.25;2.80;;;3.30;99.90;;;;;;5001917;28;20026;-45
2022/01/30 02:10:29;;;;;;;10.95;4.03;;;3.40;99.90;;;;;;4996754;28;20434;-46
2022/01/30 02:13:07;;;;;;;6.93;3.72;;;3.40;99.90;;;;;;4998457;28;20081;-45
2022/01/30 02:23:55;;;;;;;10.77;3.95;;;3.50;99.90;;;;;;5005331;28;20050;-46
2022/01/30 02:24:03;;;;;;;7.13;3.38;;;3.70;99.40;;;;;;5002415;28;20041;-46
2022/01/30 02:26:35;;;;;;;7.65;3.38;;;3.70;99.10;;;;;;5004365;28;20574;-47
2022/01/30 02:29:00;;;;;;;;;;;3.80;99.00;;;;;;5000448;28;20112;-46
2022/01/30 02:31:26;;;;;;;5.15;3.22;;;3.80;98.80;;;;;;4983905;28;19906;-45
2022/01/30 02:33:52;;;;;;;9.23;3.72;;;3.90;98.80;;;;;;4986920;28;20037;-46
2022/01/30 02:36:18;;;;;;;10.63;4.07;;;4.10;99.40;;;;;;5071442;28;20490;-45
2022/01/30 02:38:43;;;;;;;11.50;4.70;;;4.30;99.80;;;;;;5056047;28;20033;-45
2022/01/30 02:41:09;;;;;;;10.65;5.25;;;4.50;99.90;;;;;;5055000;28;20043;-46
2022/01/30 02:43:36;;;;;;;12.05;6.32;;;4.50;99.90;;;;;;5053157;28;20033;-45
2022/01/30 02:46:40;;;;;;;14.85;9.52;;;4.50;99.90;;;;;;5056031;28;20123;-46
2022/01/30 02:48:58;;;;;;;16.88;10.63;;;4.40;99.90;;;;;;5070099;28;20411;-45
2022/01/30 02:51:32;;;;;;;21.92;11.63;;;4.40;99.90;;;;;;5070937;28;20060;-46
2022/01/30 02:54:05;;;;;;;28.55;16.23;;;4.60;99.90;;;;;;5072309;28;20120;-45
2022/01/30 02:56:31;;;;;;;34.70;21.00;;;4.70;99.90;;;;;;5076108;28;20040;-46
2022/01/30 02:58:57;;;;;;;34.10;20.25;;;4.80;99.90;;;;;;5056540;28;20174;-46
2022/01/30 03:01:22;;;;;;;28.63;17.98;;;5.00;99.90;;;;;;5007037;28;20123;-46
2022/01/30 03:03:48;;;;;;;35.45;20.45;;;5.10;99.90;;;;;;5029745;28;20551;-48
2022/01/30 03:06:14;;;;;;;29.42;18.13;;;5.10;99.90;;;;;;5072661;28;20037;-47
2022/01/30 03:08:40;;;;;;;28.00;16.45;;;;;;;;;;5051820;28;20077;-45
2022/01/30 03:11:06;;;;;;;35.00;17.45;;;;;;;;;;5073455;28;20081;-46
2022/01/30 03:13:32;;;;;;;32.28;18.08;;;;;;;;;;5073417;28;20036;-46
2022/01/30 03:16:03;;;;;;;35.88;20.55;;;;;;;;;;5071167;28;20040;-47
2022/01/30 03:18:30;;;;;;;44.35;27.02;;;5.20;99.90;;;;;;5016241;28;20392;-45
2022/01/30 03:20:56;;;;;;;89.70;56.45;;;5.30;99.90;;;;;;5073661;28;20039;-46
2022/01/30 03:23:22;;;;;;;65.68;37.42;;;5.20;99.90;;;;;;5071023;28;20426;-46
2022/01/30 03:25:54;;;;;;;48.60;27.92;;;5.60;99.90;;;;;;5046351;28;20032;-47
2022/01/30 03:28:20;;;;;;;71.63;39.75;;;5.40;99.90;;;;;;5054368;28;20045;-46
2022/01/30 03:30:48;;;;;;;62.00;36.22;;;;;;;;;;5071392;28;20055;-47
2022/01/30 03:33:14;;;;;;;73.97;48.38;;;;;;;;;;5072633;28;20381;-47
2022/01/30 03:35:40;;;;;;;71.63;43.20;;;;;;;;;;5069747;28;20047;-46
2022/01/30 03:38:06;;;;;;;41.63;24.52;;;5.80;99.90;;;;;;5075137;28;20090;-45
2022/01/30 03:40:32;;;;;;;32.75;20.40;;;5.70;99.90;;;;;;5071121;28;20028;-46
2022/01/30 03:42:57;;;;;;;32.42;18.90;;;5.70;99.90;;;;;;5072106;28;20025;-47
2022/01/30 03:45:24;;;;;;;72.10;37.88;;;;;;;;;;5029907;28;20127;-46
2022/01/30 03:47:52;;;;;;;52.58;29.23;;;;;;;;;;5036750;28;20044;-46
2022/01/30 03:50:17;;;;;;;30.65;17.42;;;5.70;99.90;;;;;;5065352;28;20066;-47
2022/01/30 03:52:43;;;;;;;27.13;15.50;;;5.80;99.90;;;;;;5069126;28;20056;-47
2022/01/30 03:55:09;;;;;;;26.50;13.50;;;5.90;99.90;;;;;;5074333;28;20063;-46
2022/01/30 03:57:34;;;;;;;21.08;12.00;;;5.90;99.90;;;;;;5035908;28;20045;-45
2022/01/30 04:00:00;;;;;;;21.20;10.32;;;6.00;99.90;;;;;;5055330;28;20036;-45
2022/01/30 04:02:26;;;;;;;19.65;11.65;;;;;;;;;;5068728;28;20480;-46
2022/01/30 04:04:52;;;;;;;19.95;10.55;;;;;;;;;;5040013;28;20082;-44
2022/01/30 04:07:19;;;;;;;15.70;9.13;;;;;;;;;;5074951;28;20043;-47
2022/01/30 04:09:44;;;;;;;16.05;10.05;;;5.80;99.90;;;;;;5075190;28;20028;-46
2022/01/30 04:12:11;;;;;;;23.08;12.38;;;5.80;99.90;;;;;;5039693;28;20052;-45
2022/01/30 04:14:37;;;;;;;16.75;8.95;;;5.80;99.90;;;;;;5022990;28;20056;-46
2022/01/30 04:17:04;;;;;;;14.93;9.43;;;5.60;99.90;;;;;;5039780;28;20060;-47
2022/01/30 04:19:30;;;;;;;19.15;11.35;;;5.70;99.90;;;;;;5074713;28;20499;-47
2022/01/30 04:21:56;;;;;;;18.90;11.07;;;5.50;99.90;;;;;;5056376;28;20037;-45
2022/01/30 04:24:22;;;;;;;22.35;13.25;;;5.50;99.90;;;;;;5056104;28;20480;-45
2022/01/30 04:26:47;;;;;;;34.38;19.30;;;5.30;99.90;;;;;;5023049;28;20546;-45
2022/01/30 04:29:13;;;;;;;34.92;18.10;;;5.20;99.90;;;;;;5074615;28;20043;-45
2022/01/30 04:31:39;;;;;;;25.08;13.88;;;5.20;99.90;;;;;;5022876;28;20064;-46
2022/01/30 04:34:05;;;;;;;14.48;9.43;;;5.20;99.90;;;;;;4989970;28;20063;-46
2022/01/30 04:36:38;;;;;;;21.20;11.27;;;5.40;99.90;;;;;;5022469;28;20492;-47
2022/01/30 04:39:31;;;;;;;19.67;11.15;;;5.40;99.90;;;;;;5074616;28;20082;-45
2022/01/30 04:58:32;;;;;;;20.45;12.38;;;5.20;99.00;;;;;;4992334;28;20042;-43
2022/01/30 05:01:14;;;;;;;20.17;11.88;;;5.40;99.70;;;;;;4992599;28;20034;-43
2022/01/30 05:03:57;;;;;;;21.92;11.85;;;5.50;99.80;;;;;;4992484;28;20043;-46
2022/01/30 05:06:53;;;;;;;17.98;9.85;;;5.60;99.90;;;;;;4992427;28;20083;-44
2022/01/30 05:09:15;;;;;;;18.77;9.95;;;5.80;99.90;;;;;;4966489;28;20398;-44
2022/01/30 05:11:41;;;;;;;15.25;8.73;;;5.80;99.90;;;;;;4991998;28;20038;-44
2022/01/30 05:14:07;;;;;;;12.20;7.40;;;5.70;99.90;;;;;;4975687;28;20108;-45
2022/01/30 05:16:35;;;;;;;13.75;8.13;;;5.70;99.90;;;;;;4943743;28;20049;-44
2022/01/30 05:19:01;;;;;;;20.17;11.70;;;5.80;99.90;;;;;;4960381;28;20096;-45
2022/01/30 05:21:27;;;;;;;21.60;10.98;;;5.50;99.90;;;;;;4992327;28;20030;-44
2022/01/30 05:23:53;;;;;;;28.30;15.13;;;5.70;99.90;;;;;;5025916;28;20048;-43
2022/01/30 05:26:22;;;;;;;30.90;17.00;;;;;;;;;;4970002;28;20037;-44
2022/01/30 05:28:48;;;;;;;19.08;10.68;;;;;;;;;;5053504;28;20032;-45
2022/01/30 05:31:14;;;;;;;13.70;8.70;;;5.50;99.90;;;;;;5053481;28;20096;-45
2022/01/30 05:33:39;;;;;;;12.18;6.32;;;5.60;99.90;;;;;;5018365;28;20179;-45
2022/01/30 05:36:06;;;;;;;9.45;5.85;;;;;;;;;;5001938;28;20178;-45
2022/01/30 05:38:32;;;;;;;10.45;6.07;;;;;;;;;;5035141;28;20437;-45
2022/01/30 05:40:58;;;;;;;11.52;5.95;;;5.30;99.90;;;;;;5034934;28;20045;-43
2022/01/30 05:43:27;;;;;;;9.23;6.18;;;5.50;99.90;;;;;;5018179;28;20513;-45
2022/01/30 05:46:06;;;;;;;9.77;5.97;;;5.60;99.90;;;;;;5035279;28;20041;-45
2022/01/30 05:48:32;;;;;;;10.27;7.00;;;;;;;;;;5037241;28;20037;-45
2022/01/30 05:50:58;;;;;;;10.27;6.50;;;;;;;;;;5034880;28;20098;-43
2022/01/30 05:53:24;;;;;;;14.00;8.57;;;;;;;;;;5053247;28;20025;-44
2022/01/30 05:55:51;;;;;;;12.95;7.15;;;5.60;99.90;;;;;;5053477;28;20469;-44
2022/01/30 05:58:16;;;;;;;9.50;5.90;;;5.70;99.90;;;;;;5053264;28;20083;-46
2022/01/30 06:00:42;;;;;;;17.95;9.98;;;5.20;99.90;;;;;;5052946;28;20454;-45
2022/01/30 06:03:08;;;;;;;43.05;34.50;;;;;;;;;;5053150;28;20029;-43
2022/01/30 06:05:34;;;;;;;36.22;23.73;;;4.80;99.90;;;;;;5018250;28;20061;-44
2022/01/30 06:08:09;;;;;;;21.27;13.80;;;4.80;99.90;;;;;;5001627;28;20576;-42
2022/01/30 06:10:35;;;;;;;20.98;11.60;;;5.00;99.90;;;;;;5020902;28;20443;-44
2022/01/30 06:13:01;;;;;;;14.38;10.27;;;5.20;99.90;;;;;;5038938;28;20044;-43
2022/01/30 06:15:27;;;;;;;13.00;9.25;;;5.00;99.40;;;;;;5058437;28;20033;-42
2022/01/30 06:17:52;;;;;;;17.42;9.20;;;5.00;99.50;;;;;;5077136;28;20060;-44
2022/01/30 06:20:18;;;;;;;15.80;8.75;;;4.80;99.60;;;;;;5042103;28;20123;-45
2022/01/30 06:22:44;;;;;;;14.18;8.80;;;4.90;99.70;;;;;;5076991;28;20108;-45
2022/01/30 06:25:11;;;;;;;15.80;8.73;;;;;;;;;;5077050;28;20029;-45
2022/01/30 06:27:37;;;;;;;16.45;11.07;;;;;;;;;;5067001;28;20033;-45
2022/01/30 06:30:05;;;;;;;24.90;12.07;;;;;;;;;;5057027;28;20389;-44
2022/01/30 06:32:31;;;;;;;63.95;38.55;;;;;;;;;;5015130;28;20191;-45
2022/01/30 06:34:57;;;;;;;18.52;10.27;;;4.70;99.90;;;;;;5013839;28;20038;-43
2022/01/30 06:37:22;;;;;;;10.88;6.13;;;4.80;99.90;;;;;;4965130;28;20053;-44
2022/01/30 06:39:48;;;;;;;28.45;22.10;;;;;;;;;;5002290;28;20030;-45
2022/01/30 06:42:15;;;;;;;11.40;7.60;;;;;;;;;;4971637;28;20065;-42
2022/01/30 06:44:43;;;;;;;14.35;8.73;;;;;;;;;;4998728;28;20038;-44
2022/01/30 06:47:09;;;;;;;17.48;15.40;;;4.80;99.90;;;;;;5012409;28;20049;-44
2022/01/30 06:49:35;;;;;;;10.75;7.38;;;4.90;99.90;;;;;;5009691;28;20052;-43
2022/01/30 06:52:00;;;;;;;12.68;7.88;;;5.50;99.90;;;;;;5004395;28;20062;-43
2022/01/30 06:54:27;;;;;;;27.63;17.20;;;;;;;;;;4986030;28;20065;-45
2022/01/30 06:56:53;;;;;;;14.88;8.57;;;;;;;;;;5013220;28;20049;-45
2022/01/30 06:59:19;;;;;;;13.93;10.10;;;7.30;99.90;;;;;;5013400;28;20053;-45
2022/01/30 07:01:45;;;;;;;22.70;11.70;;;;;;;;;;5011883;28;20056;-45
2022/01/30 07:04:13;;;;;;;17.85;12.88;;;;;;;;;;4995723;28;20041;-44
2022/01/30 07:06:39;;;;;;;48.28;32.42;;;;;;;;;;5029613;28;20028;-45
2022/01/30 07:09:05;;;;;;;40.13;26.40;;;;;;;;;;5048530;28;20037;-45
2022/01/30 07:11:31;;;;;;;44.50;26.45;;;;;;;;;;5067159;28;20020;-46
2022/01/30 07:13:58;;;;;;;63.50;33.20;;;9.50;93.80;;;;;;5065962;28;20031;-45
2022/01/30 07:16:23;;;;;;;62.38;33.70;;;9.40;94.20;;;;;;5064778;28;20049;-43
2022/01/30 07:18:49;;;;;;;55.83;34.63;;;9.10;94.60;;;;;;5063672;28;20519;-46
2022/01/30 07:21:15;;;;;;;36.75;22.95;;;8.70;95.10;;;;;;5036684;28;20112;-46
2022/01/30 07:23:41;;;;;;;34.78;22.70;;;8.20;96.10;;;;;;5027338;28;20051;-46
2022/01/30 07:26:07;;;;;;;34.25;22.98;;;8.20;96.20;;;;;;5061589;28;20052;-47
2022/01/30 07:28:33;;;;;;;39.17;24.15;;;9.90;96.90;;;;;;5012457;28;20072;-50
2022/01/30 07:30:59;;;;;;;44.10;28.13;;;11.10;95.90;;;;;;5035616;28;20571;-46
2022/01/30 07:33:25;;;;;;;37.25;24.85;;;;;;;;;;5046901;28;20098;-40
2022/01/30 07:35:53;;;;;;;38.97;24.55;;;16.00;99.90;;;;;;5028232;28;20045;-49
2022/01/30 07:38:21;;;;;;;33.53;22.85;;;18.10;99.90;;;;;;5062451;28;20083;-46
2022/01/30 07:40:47;;;;;;;25.17;16.95;;;19.70;80.30;;;;;;5053950;28;20036;-50
2022/01/30 07:43:13;;;;;;;35.42;19.52;;;19.50;71.50;;;;;;5057567;28;20098;-47
2022/01/30 07:45:39;;;;;;;27.55;19.05;;;;;;;;;;5070600;28;20028;-47
2022/01/30 07:48:05;;;;;;;30.08;18.55;;;16.80;69.90;;;;;;5071664;28;20044;-53
2022/01/30 07:50:31;;;;;;;29.90;20.67;;;15.60;71.10;;;;;;5030451;28;20407;-57
2022/01/30 07:52:57;;;;;;;24.83;17.80;;;;;;;;;;5074385;28;20078;-52
2022/01/30 07:55:23;;;;;;;18.27;13.60;;;;;;;;;;5025585;28;21063;-54
2022/01/30 07:57:49;;;;;;;20.05;12.35;;;13.70;84.80;;;;;;5026584;28;20031;-55
2022/01/30 08:00:15;;;;;;;29.42;21.38;;;14.10;75.00;;;;;;5028385;28;20450;-50
2022/01/30 08:02:41;;;;;;;35.40;24.25;;;16.10;77.00;;;;;;5027421;28;20067;-50
2022/01/30 08:05:07;;;;;;;23.35;15.00;;;;;;;;;;5060471;28;20021;-55
2022/01/30 08:07:33;;;;;;;21.50;14.48;;;;;;;;;;5002240;28;20052;-53
2022/01/30 08:09:59;;;;;;;21.60;15.55;;;22.70;69.10;;;;;;5018802;28;20045;-56
2022/01/30 08:12:25;;;;;;;23.30;17.63;;;;;;;;;;5053852;28;20120;-53
2022/01/30 08:14:51;;;;;;;18.85;14.35;;;;;;;;;;5053813;28;20036;-53
2022/01/30 08:17:22;;;;;;;18.27;14.80;;;24.10;60.90;;;;;;5018546;28;20178;-54
2022/01/30 08:19:50;;;;;;;377.00;178.82;;;24.20;61.60;;;;;;5019818;28;20041;-51
2022/01/30 08:22:15;;;;;;;507.58;283.95;;;23.30;60.40;;;;;;5058127;28;20492;-47
2022/01/30 08:24:41;;;;;;;77.28;46.95;;;21.80;61.30;;;;;;5043039;28;20029;-49
2022/01/30 08:27:07;;;;;;;70.97;40.45;;;21.60;63.70;;;;;;5055874;28;20070;-54
2022/01/30 08:29:33;;;;;;;284.15;116.43;;;22.60;63.70;;;;;;5066092;28;20476;-49
2022/01/30 08:31:59;;;;;;;19.98;13.20;;;;;;;;;;5037032;28;20033;-53
2022/01/30 08:34:26;;;;;;;20.85;13.90;;;25.20;58.80;;;;;;5066385;28;20029;-50
2022/01/30 08:36:52;;;;;;;11.60;7.70;;;;;;;;;;5062578;28;20029;-51
2022/01/30 08:39:19;;;;;;;16.52;11.38;;;;;;;;;;5058663;28;20055;-47
2022/01/30 08:41:45;;;;;;;10.07;7.88;;;;;;;;;;5055614;28;20384;-48
2022/01/30 08:44:11;;;;;;;33.58;14.20;;;26.50;92.30;;;;;;5069625;28;20036;-54
2022/01/30 08:46:37;;;;;;;12.70;10.10;;;25.50;56.10;;;;;;5052688;28;20033;-49
2022/01/30 08:49:03;;;;;;;15.10;8.32;;;24.90;56.60;;;;;;5058038;28;20044;-48
2022/01/30 08:51:28;;;;;;;23.50;14.43;;;24.10;55.70;;;;;;5062951;28;20036;-50
2022/01/30 08:53:54;;;;;;;12.57;8.45;;;23.50;56.70;;;;;;5056592;28;20025;-47
2022/01/30 08:56:24;;;;;;;14.10;9.13;;;23.60;57.00;;;;;;5052895;28;20043;-55
2022/01/30 08:58:49;;;;;;;18.13;12.00;;;22.70;56.30;;;;;;5053009;28;20687;-45
2022/01/30 09:01:16;;;;;;;19.45;10.88;;;23.00;58.00;;;;;;5017533;28;20060;-52
2022/01/30 09:03:43;;;;;;;120.85;70.03;;;;;;;;;;5052481;28;20025;-45
2022/01/30 09:06:10;;;;;;;91.10;42.30;;;22.00;59.00;;;;;;5052883;28;20469;-51
2022/01/30 09:08:35;;;;;;;16.70;10.75;;;21.40;59.40;;;;;;5052400;28;20067;-45
2022/01/30 09:11:01;;;;;;;20.98;10.63;;;20.40;59.20;;;;;;5023174;28;20037;-49
2022/01/30 09:13:27;;;;;;;68.55;37.47;;;19.70;60.10;;;;;;5068504;28;20372;-52
2022/01/30 09:15:59;;;;;;;25.10;14.98;;;18.60;60.60;;;;;;5015453;28;20052;-48
2022/01/30 09:18:26;;;;;;;44.85;25.58;;;18.10;61.70;;;;;;5062948;28;20028;-48
2022/01/30 09:20:54;;;;;;;56.97;34.20;;;16.70;64.40;;;;;;5060579;28;20039;-55
2022/01/30 09:23:20;;;;;;;36.13;19.15;;;16.00;66.00;;;;;;5043730;28;20548;-53
2022/01/30 09:25:46;;;;;;;26.33;16.95;;;15.90;66.40;;;;;;5054526;28;20032;-50
2022/01/30 09:28:13;;;;;;;24.27;13.45;;;15.50;68.10;;;;;;5054922;28;20048;-49
2022/01/30 09:30:39;;;;;;;36.90;22.98;;;15.00;68.50;;;;;;5060777;28;20104;-46
2022/01/30 09:33:04;;;;;;;23.10;13.40;;;15.30;69.10;;;;;;5042869;28;20480;-47
2022/01/30 09:35:30;;;;;;;18.88;11.43;;;15.80;69.10;;;;;;5060660;28;20041;-50
2022/01/30 09:37:57;;;;;;;18.95;14.13;;;16.10;67.40;;;;;;5018389;28;20032;-44
2022/01/30 09:40:23;;;;;;;17.92;15.68;;;16.80;68.60;;;;;;5060761;28;20025;-50
2022/01/30 09:42:50;;;;;;;18.67;12.52;;;18.10;69.10;;;;;;5052895;28;20021;-48
2022/01/30 09:45:18;;;;;;;20.48;12.35;;;18.10;66.50;;;;;;5063153;28;20044;-47
2022/01/30 09:47:46;;;;;;;20.65;16.08;;;17.90;65.50;;;;;;5058396;28;20052;-47
2022/01/30 09:50:12;;;;;;;18.42;16.73;;;18.80;67.80;;;;;;5060867;28;20024;-43
2022/01/30 09:52:38;;;;;;;16.88;14.98;;;20.30;66.20;;;;;;5060522;28;20079;-48
2022/01/30 09:55:08;;;;;;;15.13;9.23;;;20.20;63.80;;;;;;5049520;28;20033;-46
2022/01/30 09:57:34;;;;;;;14.20;9.77;;;20.20;63.60;;;;;;5035600;28;20056;-48
2022/01/30 10:00:00;;;;;;;5.97;3.17;;;19.30;63.60;;;;;;5065690;28;20047;-47
2022/01/30 10:02:26;;;;;;;5.25;3.28;;;17.70;61.90;;;;;;5008625;28;20040;-49
2022/01/30 10:04:52;;;;;;;9.05;5.60;;;16.70;64.70;;;;;;5062332;28;20033;-53
2022/01/30 10:07:21;;;;;;;7.68;3.70;;;15.70;66.00;;;;;;5042303;28;20029;-54
2022/01/30 10:09:49;;;;;;;6.07;3.67;;;15.20;67.10;;;;;;5071962;28;20116;-50
2022/01/30 10:12:20;;;;;;;8.18;7.00;;;14.80;67.70;;;;;;5071958;28;20028;-52
2022/01/30 10:15:02;;;;;;;7.53;5.13;;;;;;;;;;5071983;28;20094;-53
2022/01/30 10:17:33;;;;;;;9.60;4.03;;;;;;;;;;5052850;28;20131;-52
2022/01/30 10:20:00;;;;;;;7.82;4.78;;;13.70;69.70;;;;;;5071782;28;20028;-52
2022/01/30 10:22:26;;;;;;;8.52;4.95;;;13.50;71.00;;;;;;5071849;28;20074;-53
2022/01/30 10:24:51;;;;;;;5.90;4.53;;;13.20;71.80;;;;;;5019921;28;20480;-56
2022/01/30 10:27:26;;;;;;;10.98;4.72;;;13.10;72.10;;;;;;5071940;28;20024;-54
2022/01/30 10:30:07;;;;;;;9.43;4.65;;;13.30;72.40;;;;;;5069919;28;20043;-51
2022/01/30 10:32:34;;;;;;;7.50;4.53;;;13.20;72.70;;;;;;5027659;28;20123;-56
2022/01/30 10:35:08;;;;;;;7.65;4.80;;;13.40;73.30;;;;;;5066672;28;20036;-54
2022/01/30 10:37:38;;;;;;;12.18;7.00;;;14.00;74.00;;;;;;5062884;28;20079;-50
2022/01/30 10:40:11;;;;;;;19.95;11.80;;;14.60;73.80;;;;;;5066610;28;20029;-57
2022/01/30 10:42:48;;;;;;;25.92;13.63;;;15.00;72.30;;;;;;5015045;28;20044;-51
2022/01/30 10:45:26;;;;;;;18.35;9.82;;;15.70;72.00;;;;;;5027082;28;20048;-54
2022/01/30 10:48:11;;;;;;;18.05;9.60;;;16.20;69.90;;;;;;5025907;28;20119;-56
2022/01/30 10:50:44;;;;;;;15.30;7.97;;;16.10;70.00;;;;;;5059961;28;20043;-52
2022/01/30 10:53:24;;;;;;;25.77;12.68;;;15.80;69.90;;;;;;5067365;28;20032;-52
2022/01/30 10:55:51;;;;;;;81.35;35.83;;;15.90;70.00;;;;;;5063968;28;20068;-49
2022/01/30 10:58:21;;;;;;;72.75;35.10;;;16.80;71.20;;;;;;5068283;28;20127;-53
2022/01/30 11:00:48;;;;;;;16.67;11.23;;;17.20;69.50;;;;;;5072704;28;20074;-47
2022/01/30 11:03:36;;;;;;;41.88;25.02;;;17.10;69.40;;;;;;5054249;28;20131;-54
2022/01/30 11:06:03;;;;;;;34.22;22.48;;;16.90;68.60;;;;;;5035164;28;20044;-50
2022/01/30 11:08:31;;;;;;;18.85;14.13;;;16.60;69.70;;;;;;5060150;28;20029;-50
2022/01/30 11:11:12;;;;;;;18.95;11.25;;;15.90;71.20;;;;;;5067607;28;20025;-54
2022/01/30 11:13:48;;;;;;;18.67;16.67;;;15.30;72.10;;;;;;5060962;28;20025;-50
2022/01/30 11:19:00;;;;;;;37.22;22.80;;;16.10;74.10;;;;;;5032550;28;20095;-52
2022/01/30 11:21:27;;;;;;;17.52;15.63;;;16.70;73.30;;;;;;5028999;28;20029;-52
2022/01/30 11:23:57;;;;;;;16.15;14.30;;;16.40;72.30;;;;;;5018261;28;20073;-52
2022/01/30 11:26:24;;;;;;;27.15;18.50;;;16.60;72.10;;;;;;5025595;28;20030;-54
2022/01/30 11:28:50;;;;;;;65.10;33.63;;;16.90;72.20;;;;;;5029229;28;20046;-53
2022/01/30 11:31:16;;;;;;;19.35;17.23;;;16.80;71.00;;;;;;4975548;28;20136;-53
2022/01/30 11:33:45;;;;;;;17.55;15.85;;;16.40;69.50;;;;;;5003043;28;20780;-52
2022/01/30 11:36:12;;;;;;;36.03;23.08;;;16.10;69.30;;;;;;5018735;28;20034;-50
2022/01/30 11:38:39;;;;;;;55.42;27.10;;;16.10;69.00;;;;;;5018518;28;20049;-54
2022/01/30 11:41:23;;;;;;;24.50;22.05;;;16.10;67.60;;;;;;4963621;28;20042;-48
2022/01/30 11:44:19;;;;;;;12.82;8.65;;;16.80;65.90;;;;;;4978728;28;20038;-50
2022/01/30 11:46:52;;;;;;;21.38;10.55;;;17.10;65.00;;;;;;5022067;28;20048;-49
2022/01/30 11:49:18;;;;;;;47.17;19.95;;;17.10;66.40;;;;;;5029782;28;20106;-49
2022/01/30 11:51:54;;;;;;;117.80;35.35;;;16.50;67.80;;;;;;5043372;28;20469;-51
2022/01/30 11:54:33;;;;;;;30.60;14.15;;;15.80;68.20;;;;;;5042650;28;20037;-48
2022/01/30 11:56:59;;;;;;;31.10;14.18;;;16.10;68.80;;;;;;5038761;28;20460;-49
2022/01/30 11:59:37;;;;;;;67.10;23.42;;;16.20;68.50;;;;;;5047373;28;20484;-52
2022/01/30 12:02:29;;;;;;;12.88;8.52;;;16.20;68.00;;;;;;5049711;28;20531;-50
2022/01/30 12:05:03;;;;;;;19.60;12.20;;;16.30;70.00;;;;;;5047787;28;20029;-50
2022/01/30 12:07:35;;;;;;;13.23;7.90;;;16.30;69.90;;;;;;5052821;28;20025;-50
2022/01/30 12:10:16;;;;;;;12.20;8.65;;;16.40;68.50;;;;;;5051826;28;20115;-50
2022/01/30 12:13:01;;;;;;;15.23;8.68;;;16.60;69.70;;;;;;5053701;28;20120;-52
2022/01/30 12:15:41;;;;;;;22.60;12.25;;;17.00;69.70;;;;;;5053758;28;20028;-51
2022/01/30 12:18:33;;;;;;;14.68;9.25;;;17.30;67.70;;;;;;5052819;28;20037;-49
2022/01/30 12:21:05;;;;;;;;;;;17.50;68.60;;;;;;5052895;28;20029;-48
2022/01/30 12:23:35;;;;;;;8.13;5.90;;;16.90;67.60;;;;;;5038162;28;19963;-47
2022/01/30 12:26:06;;;;;;;7.90;5.45;;;17.40;67.70;;;;;;5053479;28;20103;-51
2022/01/30 12:28:49;;;;;;;11.40;5.55;;;17.10;68.50;;;;;;5048191;28;20087;-54
2022/01/30 12:31:32;;;;;;;7.97;5.40;;;16.70;68.80;;;;;;5033584;28;20048;-52
2022/01/30 12:34:03;;;;;;;7.45;4.97;;;16.50;68.10;;;;;;5041306;28;20553;-51
2022/01/30 12:36:33;;;;;;;8.95;5.60;;;16.80;68.00;;;;;;5043637;28;20049;-50
2022/01/30 12:39:06;;;;;;;6.90;4.82;;;17.40;68.70;;;;;;5041119;28;20037;-49
2022/01/30 12:41:35;;;;;;;6.20;4.32;;;17.70;68.50;;;;;;5036476;28;20048;-51
2022/01/30 12:44:12;;;;;;;8.98;5.75;;;17.50;67.70;;;;;;5031609;28;20038;-48
2022/01/30 12:46:48;;;;;;;7.82;4.97;;;17.60;69.10;;;;;;5022800;28;20048;-50
2022/01/30 12:49:19;;;;;;;7.95;5.18;;;17.60;66.60;;;;;;5061096;28;20044;-51
2022/01/30 12:51:56;;;;;;;8.93;6.50;;;17.80;66.90;;;;;;5061523;28;20013;-46
2022/01/30 12:54:29;;;;;;;8.68;5.68;;;18.10;67.20;;;;;;5061122;28;20041;-50
2022/01/30 12:56:55;;;;;;;12.63;6.22;;;17.70;66.30;;;;;;5061923;28;20043;-49
2022/01/30 12:59:25;;;;;;;9.93;6.65;;;17.80;67.50;;;;;;5062293;28;20545;-49
2022/01/30 13:01:51;;;;;;;9.10;5.10;;;17.60;67.50;;;;;;5059567;28;20078;-51
2022/01/30 13:04:20;;;;;;;7.15;3.92;;;18.10;67.90;;;;;;5063200;28;20031;-48
2022/01/30 13:06:48;;;;;;;8.07;4.10;;;17.50;67.00;;;;;;5031594;28;20072;-48
2022/01/30 13:09:22;;;;;;;6.28;4.53;;;17.80;68.40;;;;;;5064713;28;20541;-53
2022/01/30 13:11:56;;;;;;;5.55;3.50;;;17.10;69.00;;;;;;5050992;28;20036;-50
2022/01/30 13:14:34;;;;;;;7.55;4.35;;;17.00;68.90;;;;;;5045362;28;20485;-48
2022/01/30 13:17:00;;;;;;;6.43;3.47;;;16.70;69.10;;;;;;5026086;28;20058;-50
2022/01/30 13:19:39;;;;;;;5.38;3.60;;;16.30;70.90;;;;;;5064018;28;20025;-48
2022/01/30 13:22:11;;;;;;;6.88;4.40;;;16.20;71.00;;;;;;5032840;28;20107;-48
2022/01/30 13:24:38;;;;;;;6.88;4.65;;;16.10;70.80;;;;;;5063313;28;20021;-51
2022/01/30 13:27:08;;;;;;;6.03;4.22;;;16.30;71.70;;;;;;5062618;28;20028;-48
2022/01/30 13:29:35;;;;;;;6.32;4.40;;;16.30;71.20;;;;;;5062458;28;20024;-47
2022/01/30 13:32:12;;;;;;;8.93;6.70;;;17.10;71.60;;;;;;5061120;28;20032;-45
2022/01/30 13:34:42;;;;;;;16.83;5.38;;;16.90;71.50;;;;;;5061211;28;20071;-44
2022/01/30 13:37:09;;;;;;;7.60;4.60;;;17.00;70.70;;;;;;5028173;28;20045;-47
2022/01/30 13:39:59;;;;;;;10.63;6.10;;;17.00;71.20;;;;;;5029316;28;20127;-49
2022/01/30 13:47:42;;;;;;;8.20;4.85;;;16.30;71.50;;;;;;5052134;28;20052;-51